createdAt,value
2023-03-13T00:03:03.011Z,60.93
2023-03-13T00:08:07.852Z,60.96
2023-03-13T00:13:11.371Z,60.98
2023-03-13T00:18:14.749Z,60.86
2023-03-13T00:23:19.633Z,61.19
2023-03-13T00:28:23.095Z,61.35
2023-03-13T00:33:26.567Z,61.29
2023-03-13T00:38:32.337Z,60.67
2023-03-13T00:43:36.779Z,61.06
2023-03-13T00:48:40.188Z,60.71
2023-03-13T00:53:45.469Z,60.81
2023-03-13T00:58:50.508Z,61.26
2023-03-13T01:03:56.200Z,60.81
2023-03-13T01:09:01.865Z,61.05
2023-03-13T01:14:07.989Z,61.71
2023-03-13T01:19:13.687Z,62.07
2023-03-13T01:24:20.344Z,61.80
2023-03-13T01:29:23.893Z,61.69
2023-03-13T01:34:27.474Z,62.42
2023-03-13T01:39:32.533Z,62.15
2023-03-13T01:44:51.770Z,62.79
2023-03-13T01:49:55.336Z,62.89
2023-03-13T01:55:05.125Z,62.69
2023-03-13T02:00:12.579Z,62.99
2023-03-13T02:05:18.328Z,62.75
2023-03-13T02:10:24.332Z,62.82
2023-03-13T02:15:29.180Z,63.27
2023-03-13T02:20:32.999Z,63.26
2023-03-13T02:25:44.394Z,63.17
2023-03-13T02:30:49.759Z,63.45
2023-03-13T02:35:55.131Z,63.92
2023-03-13T02:41:02.179Z,63.57
2023-03-13T02:46:08.424Z,63.95
2023-03-13T02:51:18.779Z,64.53
2023-03-13T02:56:26.737Z,63.73
2023-03-13T03:01:30.460Z,63.95
2023-03-13T03:06:34.084Z,63.77
2023-03-13T03:11:39.590Z,63.71
2023-03-13T03:16:43.333Z,63.84
2023-03-13T03:21:47.012Z,64.04
2023-03-13T03:26:51.890Z,63.93
2023-03-13T03:31:55.533Z,64.44
2023-03-13T03:36:59.057Z,64.45
2023-03-13T03:42:04.851Z,65.21
2023-03-13T03:47:08.492Z,65.02
2023-03-13T03:52:12.086Z,64.63
2023-03-13T03:57:16.852Z,64.78
2023-03-13T04:02:20.410Z,64.96
2023-03-13T04:07:23.992Z,64.47
2023-03-13T04:12:28.845Z,64.57
2023-03-13T04:17:32.597Z,64.26
2023-03-13T04:22:35.984Z,64.04
2023-03-13T04:27:40.920Z,63.55
2023-03-13T04:32:44.650Z,63.89
2023-03-13T04:37:48.053Z,63.33
2023-03-13T04:42:53.029Z,62.92
2023-03-13T04:47:56.538Z,62.93
2023-03-13T04:52:59.998Z,63.36
2023-03-13T04:58:04.795Z,62.81
2023-03-13T05:03:08.248Z,62.85
2023-03-13T05:08:11.993Z,60.83
2023-03-13T05:13:16.837Z,51.01
2023-03-13T05:18:20.513Z,40.60
2023-03-13T05:23:24.139Z,41.29
2023-03-13T05:28:29.193Z,43.76
2023-03-13T05:33:32.901Z,44.00
2023-03-13T05:38:36.465Z,38.81
2023-03-13T05:43:41.213Z,34.96
2023-03-13T05:48:45.749Z,34.29
2023-03-13T05:53:49.288Z,38.93
2023-03-13T05:58:54.268Z,40.42
2023-03-13T06:03:57.768Z,43.27
2023-03-13T06:09:01.235Z,44.09
2023-03-13T06:14:06.220Z,38.78
2023-03-13T06:19:09.650Z,31.81
2023-03-13T06:24:13.190Z,25.38
2023-03-13T06:29:18.215Z,21.04
2023-03-13T06:34:21.776Z,19.31
2023-03-13T06:39:25.128Z,18.85
2023-03-13T06:44:29.995Z,19.24
2023-03-13T06:49:33.802Z,20.53
2023-03-13T06:54:37.389Z,18.77
2023-03-13T06:59:42.317Z,16.68
2023-03-13T07:04:46.692Z,18.59
2023-03-13T07:09:50.014Z,21.96
2023-03-13T07:14:56.116Z,21.62
2023-03-13T07:19:59.552Z,22.73
2023-03-13T07:25:03.112Z,23.25
2023-03-13T07:30:09.238Z,22.23
2023-03-13T07:35:12.961Z,22.07
2023-03-13T07:40:16.556Z,20.04
2023-03-13T07:45:21.506Z,17.72
2023-03-13T07:50:25.061Z,15.86
2023-03-13T07:55:28.496Z,14.87
2023-03-13T08:00:33.451Z,14.80
2023-03-13T08:05:37.013Z,14.48
2023-03-13T08:10:41.459Z,15.90
2023-03-13T08:15:46.400Z,16.49
2023-03-13T08:20:50.309Z,16.88
2023-03-13T08:25:54.062Z,18.28
2023-03-13T08:30:59.089Z,20.05
2023-03-13T08:36:10.706Z,22.63
2023-03-13T08:41:15.693Z,26.53
2023-03-13T08:46:21.119Z,31.32
2023-03-13T08:51:27.028Z,34.50
2023-03-13T08:56:31.860Z,36.56
2023-03-13T09:01:38.280Z,37.47
2023-03-13T09:06:42.064Z,37.75
2023-03-13T09:11:45.459Z,36.27
2023-03-13T09:16:50.384Z,39.13
2023-03-13T09:21:53.607Z,40.34
2023-03-13T09:27:01.420Z,41.13
2023-03-13T09:32:07.388Z,42.80
2023-03-13T09:37:10.917Z,42.79
2023-03-13T09:42:18.074Z,43.65
2023-03-13T09:47:27.256Z,43.99
2023-03-13T09:52:36.712Z,44.05
2023-03-13T09:57:47.841Z,44.91
2023-03-13T10:02:58.312Z,45.88
2023-03-13T10:08:12.432Z,45.33
2023-03-13T10:13:21.538Z,45.76
2023-03-13T10:18:27.304Z,45.98
2023-03-13T10:23:40.918Z,46.34
2023-03-13T10:28:44.370Z,45.92
2023-03-13T10:33:49.164Z,45.91
2023-03-13T10:38:54.065Z,47.18
2023-03-13T10:44:01.910Z,48.94
2023-03-13T10:49:16.733Z,47.55
2023-03-13T10:54:25.171Z,48.96
2023-03-13T10:59:29.323Z,48.26
2023-03-13T11:04:37.789Z,47.86
2023-03-13T11:09:41.430Z,47.43
2023-03-13T11:14:46.517Z,47.22
2023-03-13T11:19:59.890Z,47.16
2023-03-13T11:25:24.001Z,47.39
2023-03-13T11:30:43.658Z,46.44
2023-03-13T11:35:51.942Z,45.69
2023-03-13T11:41:05.720Z,45.19
2023-03-13T11:46:24.335Z,44.82
2023-03-13T11:51:38.081Z,44.22
2023-03-13T11:57:07.405Z,44.28
2023-03-13T12:02:22.549Z,45.74
2023-03-13T12:07:29.817Z,46.58
2023-03-13T12:12:41.190Z,45.86
2023-03-13T12:17:52.249Z,46.00
2023-03-13T12:23:08.356Z,47.19
2023-03-13T12:28:24.982Z,46.60
2023-03-13T12:33:32.520Z,46.47
2023-03-13T12:38:41.383Z,47.17
2023-03-13T12:44:00.616Z,46.57
2023-03-13T12:49:33.948Z,47.06
2023-03-13T12:54:54.204Z,47.78
2023-03-13T13:00:05.768Z,47.26
2023-03-13T13:05:21.018Z,47.50
2023-03-13T13:10:28.070Z,46.93
2023-03-13T13:15:32.132Z,47.38
2023-03-13T13:20:46.952Z,47.44
2023-03-13T13:25:53.483Z,47.47
2023-03-13T13:30:58.114Z,47.67
2023-03-13T13:36:42.273Z,47.05
2023-03-13T13:41:47.233Z,47.52
2023-03-13T13:46:51.359Z,48.26
2023-03-13T13:52:20.928Z,48.62
2023-03-13T13:57:28.318Z,48.22
2023-03-13T14:02:35.470Z,48.40
2023-03-13T14:07:52.742Z,49.06
2023-03-13T14:12:58.935Z,49.61
2023-03-13T14:18:13.489Z,49.95
2023-03-13T14:23:29.633Z,50.17
2023-03-13T14:28:34.598Z,50.51
2023-03-13T14:33:38.176Z,50.69
2023-03-13T14:38:44.289Z,50.89
2023-03-13T14:43:49.169Z,50.88
2023-03-13T14:48:55.845Z,50.98
2023-03-13T14:54:01.497Z,51.67
2023-03-13T14:59:16.923Z,52.69
2023-03-13T15:04:49.970Z,52.58
2023-03-13T15:09:53.944Z,52.25
2023-03-13T15:14:59.886Z,52.38
2023-03-13T15:20:03.483Z,52.88
2023-03-13T15:25:16.009Z,52.91
2023-03-13T15:30:23.764Z,53.67
2023-03-13T15:35:30.715Z,54.22
2023-03-13T15:40:34.548Z,54.84
2023-03-13T15:45:41.539Z,54.54
2023-03-13T15:50:45.579Z,54.34
2023-03-13T15:55:50.396Z,54.74
2023-03-13T16:00:55.167Z,57.87
2023-03-13T16:06:01.266Z,55.21
2023-03-13T16:11:05.274Z,54.97
2023-03-13T16:16:22.575Z,55.92
2023-03-13T16:21:28.415Z,55.50
2023-03-13T16:26:33.026Z,55.86
2023-03-13T16:31:37.956Z,55.93
2023-03-13T16:36:41.735Z,55.88
2023-03-13T16:41:45.241Z,56.00
2023-03-13T16:47:04.673Z,55.97
2023-03-13T16:52:15.075Z,56.50
2023-03-13T16:57:21.219Z,55.82
2023-03-13T17:02:26.159Z,56.51
2023-03-13T17:07:29.963Z,55.85
2023-03-13T17:12:33.495Z,57.32
2023-03-13T17:17:39.310Z,56.90
2023-03-13T17:22:43.084Z,56.92
2023-03-13T17:27:47.727Z,56.55
2023-03-13T17:32:53.044Z,57.07
2023-03-13T17:37:56.673Z,56.69
2023-03-13T17:43:00.308Z,56.88
2023-03-13T17:48:05.838Z,57.66
2023-03-13T17:53:09.658Z,57.25
2023-03-13T17:58:13.275Z,58.13
2023-03-13T18:03:18.054Z,58.32
2023-03-13T18:08:21.246Z,59.89
2023-03-13T18:13:24.715Z,58.28
2023-03-13T18:18:29.563Z,58.80
2023-03-13T18:23:33.130Z,58.10
2023-03-13T18:28:36.611Z,57.94
2023-03-13T18:33:41.916Z,58.41
2023-03-13T18:38:45.827Z,58.13
2023-03-13T18:43:49.386Z,58.31
2023-03-13T18:48:54.458Z,57.80
2023-03-13T18:53:58.199Z,58.19
2023-03-13T18:59:01.759Z,58.56
2023-03-13T19:04:07.160Z,58.73
2023-03-13T19:09:40.978Z,58.56
2023-03-13T19:14:39.278Z,59.02
2023-03-13T19:19:44.078Z,58.96
2023-03-13T19:24:47.500Z,59.34
2023-03-13T19:29:50.920Z,59.03
2023-03-13T19:34:55.727Z,58.57
2023-03-13T19:39:59.124Z,58.78
2023-03-13T19:45:02.663Z,59.18
2023-03-13T19:50:14.284Z,58.89
2023-03-13T19:55:18.233Z,59.21
2023-03-13T20:00:23.823Z,59.40
2023-03-13T20:05:28.828Z,58.51
2023-03-13T20:10:32.413Z,58.53
2023-03-13T20:15:36.021Z,59.48
2023-03-13T20:20:40.893Z,59.29
2023-03-13T20:25:44.464Z,59.01
2023-03-13T20:30:48.876Z,58.66
2023-03-13T20:35:58.115Z,59.58
2023-03-13T20:41:01.996Z,59.32
2023-03-13T20:46:07.383Z,59.08
2023-03-13T20:51:13.105Z,58.64
2023-03-13T20:56:16.500Z,58.65
2023-03-13T21:01:20.912Z,58.96
2023-03-13T21:06:27.653Z,58.88
2023-03-13T21:11:31.148Z,58.82
2023-03-13T21:16:34.696Z,59.35
2023-03-13T21:21:39.626Z,59.56
2023-03-13T21:26:43.100Z,59.06
2023-03-13T21:31:46.775Z,59.00
2023-03-13T21:36:51.719Z,59.32
2023-03-13T21:41:55.377Z,59.32
2023-03-13T21:46:58.963Z,58.82
2023-03-13T21:52:04.145Z,59.16
2023-03-13T21:57:08.120Z,59.08
2023-03-13T22:02:13.039Z,59.32
2023-03-13T22:07:18.149Z,59.37
2023-03-13T22:12:23.829Z,59.36
2023-03-13T22:17:27.357Z,59.29
2023-03-13T22:22:32.411Z,59.82
2023-03-13T22:27:36.288Z,59.11
2023-03-13T22:32:39.997Z,59.58
2023-03-13T22:37:45.668Z,60.09
2023-03-13T22:42:49.296Z,59.06
2023-03-13T22:47:52.886Z,59.50
2023-03-13T22:52:57.719Z,59.73
2023-03-13T22:58:01.242Z,59.18
2023-03-13T23:03:04.626Z,59.41
2023-03-13T23:08:09.632Z,59.58
2023-03-13T23:13:13.901Z,59.46
2023-03-13T23:18:17.350Z,59.22
2023-03-13T23:23:22.466Z,58.82
2023-03-13T23:28:25.830Z,58.60
2023-03-13T23:33:30.630Z,58.92
2023-03-13T23:38:35.649Z,58.05
2023-03-13T23:43:39.251Z,58.69
2023-03-13T23:48:42.620Z,59.03
2023-03-13T23:53:47.562Z,58.38
2023-03-13T23:58:51.114Z,57.82
